sensor_id;sensor_type;location;lat;lon;timestamp;temperature;humidity
21906;DHT22;11117;48.644;9.006;2023-04-06T00:02:22;0.60;99.90
21906;DHT22;11117;48.644;9.006;2023-04-06T00:04:47;0.70;99.90
21906;DHT22;11117;48.644;9.006;2023-04-06T00:07:13;0.60;99.90
21906;DHT22;11117;48.644;9.006;2023-04-06T00:09:38;0.70;99.60
21906;DHT22;11117;48.644;9.006;2023-04-06T00:12:04;0.70;99.30
21906;DHT22;11117;48.644;9.006;2023-04-06T00:14:30;0.70;99.00
21906;DHT22;11117;48.644;9.006;2023-04-06T00:16:57;0.70;99.10
21906;DHT22;11117;48.644;9.006;2023-04-06T00:19:22;0.60;99.40
21906;DHT22;11117;48.644;9.006;2023-04-06T00:21:48;0.60;99.70
21906;DHT22;11117;48.644;9.006;2023-04-06T00:24:13;0.60;99.90
21906;DHT22;11117;48.644;9.006;2023-04-06T00:26:39;0.50;99.90
21906;DHT22;11117;48.644;9.006;2023-04-06T00:29:04;0.30;99.90
21906;DHT22;11117;48.644;9.006;2023-04-06T00:31:30;0.30;99.90
21906;DHT22;11117;48.644;9.006;2023-04-06T00:33:55;0.20;99.90
21906;DHT22;11117;48.644;9.006;2023-04-06T00:36:21;0.20;99.90
21906;DHT22;11117;48.644;9.006;2023-04-06T00:38:47;0.20;99.90
21906;DHT22;11117;48.644;9.006;2023-04-06T00:41:12;0.10;99.90
21906;DHT22;11117;48.644;9.006;2023-04-06T00:43:38;0.00;99.90
21906;DHT22;11117;48.644;9.006;2023-04-06T00:46:04;0.00;99.90
21906;DHT22;11117;48.644;9.006;2023-04-06T00:48:29;-0.10;99.90
21906;DHT22;11117;48.644;9.006;2023-04-06T00:50:55;-0.20;99.90
21906;DHT22;11117;48.644;9.006;2023-04-06T00:53:20;-0.20;99.90
21906;DHT22;11117;48.644;9.006;2023-04-06T00:55:46;-0.30;99.90
21906;DHT22;11117;48.644;9.006;2023-04-06T00:58:11;-0.30;99.90
21906;DHT22;11117;48.644;9.006;2023-04-06T01:00:37;-0.30;99.90
21906;DHT22;11117;48.644;9.006;2023-04-06T01:03:03;-0.30;99.90
21906;DHT22;11117;48.644;9.006;2023-04-06T01:05:29;-0.30;99.90
21906;DHT22;11117;48.644;9.006;2023-04-06T01:07:54;-0.30;99.90
21906;DHT22;11117;48.644;9.006;2023-04-06T01:10:27;-0.30;99.90
21906;DHT22;11117;48.644;9.006;2023-04-06T01:12:53;-0.30;99.90
21906;DHT22;11117;48.644;9.006;2023-04-06T01:15:20;-0.40;99.90
21906;DHT22;11117;48.644;9.006;2023-04-06T01:17:45;-0.50;99.90
21906;DHT22;11117;48.644;9.006;2023-04-06T01:20:11;-0.60;99.90
21906;DHT22;11117;48.644;9.006;2023-04-06T01:22:37;-0.60;99.90
21906;DHT22;11117;48.644;9.006;2023-04-06T01:25:02;-0.60;99.90
21906;DHT22;11117;48.644;9.006;2023-04-06T01:27:28;-0.60;99.90
21906;DHT22;11117;48.644;9.006;2023-04-06T01:29:54;-0.60;99.90
21906;DHT22;11117;48.644;9.006;2023-04-06T01:32:19;-0.60;99.90
21906;DHT22;11117;48.644;9.006;2023-04-06T01:34:45;-0.60;99.90
21906;DHT22;11117;48.644;9.006;2023-04-06T01:37:10;-0.60;99.90
21906;DHT22;11117;48.644;9.006;2023-04-06T01:39:36;-0.60;99.90
21906;DHT22;11117;48.644;9.006;2023-04-06T01:42:02;-0.50;99.90
21906;DHT22;11117;48.644;9.006;2023-04-06T01:44:27;-0.60;99.90
21906;DHT22;11117;48.644;9.006;2023-04-06T01:46:53;-0.60;99.90
21906;DHT22;11117;48.644;9.006;2023-04-06T01:49:18;-0.50;99.90
21906;DHT22;11117;48.644;9.006;2023-04-06T01:51:44;-0.60;99.90
21906;DHT22;11117;48.644;9.006;2023-04-06T01:54:09;-0.60;99.90
21906;DHT22;11117;48.644;9.006;2023-04-06T01:56:35;-0.70;99.90
21906;DHT22;11117;48.644;9.006;2023-04-06T01:59:01;-0.70;99.90
21906;DHT22;11117;48.644;9.006;2023-04-06T02:01:26;-0.60;99.90
21906;DHT22;11117;48.644;9.006;2023-04-06T02:03:52;-0.60;99.90
21906;DHT22;11117;48.644;9.006;2023-04-06T02:06:17;-0.60;99.90
21906;DHT22;11117;48.644;9.006;2023-04-06T02:08:43;-0.60;99.90
21906;DHT22;11117;48.644;9.006;2023-04-06T02:11:08;-0.60;99.90
21906;DHT22;11117;48.644;9.006;2023-04-06T02:13:34;-0.60;99.90
21906;DHT22;11117;48.644;9.006;2023-04-06T02:15:59;-0.70;99.90
21906;DHT22;11117;48.644;9.006;2023-04-06T02:18:25;-0.70;99.90
21906;DHT22;11117;48.644;9.006;2023-04-06T02:20:51;-0.80;99.90
21906;DHT22;11117;48.644;9.006;2023-04-06T02:23:16;-0.80;99.90
21906;DHT22;11117;48.644;9.006;2023-04-06T02:25:42;-0.70;99.90
21906;DHT22;11117;48.644;9.006;2023-04-06T02:28:07;-0.70;99.90
21906;DHT22;11117;48.644;9.006;2023-04-06T02:30:33;-0.60;99.90
21906;DHT22;11117;48.644;9.006;2023-04-06T02:33:00;-0.60;99.90
21906;DHT22;11117;48.644;9.006;2023-04-06T02:35:27;-0.60;99.90
21906;DHT22;11117;48.644;9.006;2023-04-06T02:37:53;-0.50;99.90
21906;DHT22;11117;48.644;9.006;2023-04-06T02:40:19;-0.50;99.90
21906;DHT22;11117;48.644;9.006;2023-04-06T02:42:44;-0.50;99.90
21906;DHT22;11117;48.644;9.006;2023-04-06T02:45:10;-0.60;99.90
21906;DHT22;11117;48.644;9.006;2023-04-06T02:47:36;-0.60;99.90
21906;DHT22;11117;48.644;9.006;2023-04-06T02:50:02;-0.60;99.90
21906;DHT22;11117;48.644;9.006;2023-04-06T02:52:28;-0.60;99.90
21906;DHT22;11117;48.644;9.006;2023-04-06T02:54:54;-0.60;99.90
21906;DHT22;11117;48.644;9.006;2023-04-06T02:57:19;-0.60;99.90
21906;DHT22;11117;48.644;9.006;2023-04-06T02:59:45;-0.60;99.90
21906;DHT22;11117;48.644;9.006;2023-04-06T03:02:10;-0.60;99.90
21906;DHT22;11117;48.644;9.006;2023-04-06T03:04:36;-0.60;99.90
21906;DHT22;11117;48.644;9.006;2023-04-06T03:07:01;-0.60;99.90
21906;DHT22;11117;48.644;9.006;2023-04-06T03:09:27;-0.70;99.90
21906;DHT22;11117;48.644;9.006;2023-04-06T03:11:53;-0.70;99.90
21906;DHT22;11117;48.644;9.006;2023-04-06T03:14:18;-0.80;99.90
21906;DHT22;11117;48.644;9.006;2023-04-06T03:16:44;-0.90;99.90
21906;DHT22;11117;48.644;9.006;2023-04-06T03:19:09;-1.00;99.90
21906;DHT22;11117;48.644;9.006;2023-04-06T03:21:35;-1.00;99.90
21906;DHT22;11117;48.644;9.006;2023-04-06T03:24:00;-1.10;99.90
21906;DHT22;11117;48.644;9.006;2023-04-06T03:26:26;-1.10;99.90
21906;DHT22;11117;48.644;9.006;2023-04-06T03:28:51;-1.20;99.90
21906;DHT22;11117;48.644;9.006;2023-04-06T03:31:17;-1.10;99.90
21906;DHT22;11117;48.644;9.006;2023-04-06T03:33:43;-1.10;99.90
21906;DHT22;11117;48.644;9.006;2023-04-06T03:36:08;-1.10;99.90
21906;DHT22;11117;48.644;9.006;2023-04-06T03:38:34;-1.10;99.90
21906;DHT22;11117;48.644;9.006;2023-04-06T03:40:59;-1.10;99.90
21906;DHT22;11117;48.644;9.006;2023-04-06T03:43:25;-1.20;99.90
21906;DHT22;11117;48.644;9.006;2023-04-06T03:45:50;-1.20;99.90
21906;DHT22;11117;48.644;9.006;2023-04-06T03:48:16;-1.10;99.90
21906;DHT22;11117;48.644;9.006;2023-04-06T03:50:41;-1.10;99.90
21906;DHT22;11117;48.644;9.006;2023-04-06T03:53:07;-1.10;99.90
21906;DHT22;11117;48.644;9.006;2023-04-06T03:55:32;-1.10;99.90
21906;DHT22;11117;48.644;9.006;2023-04-06T03:57:58;-1.10;99.90
21906;DHT22;11117;48.644;9.006;2023-04-06T04:00:48;-1.20;99.90
21906;DHT22;11117;48.644;9.006;2023-04-06T04:03:14;-1.20;99.90
21906;DHT22;11117;48.644;9.006;2023-04-06T04:05:40;-1.20;99.90
21906;DHT22;11117;48.644;9.006;2023-04-06T04:08:05;-1.20;99.90
21906;DHT22;11117;48.644;9.006;2023-04-06T04:10:31;-1.20;99.90
21906;DHT22;11117;48.644;9.006;2023-04-06T04:12:56;-1.20;99.90
21906;DHT22;11117;48.644;9.006;2023-04-06T04:15:22;-1.20;99.90
21906;DHT22;11117;48.644;9.006;2023-04-06T04:17:47;-1.10;99.90
21906;DHT22;11117;48.644;9.006;2023-04-06T04:20:13;-1.00;99.90
21906;DHT22;11117;48.644;9.006;2023-04-06T04:22:38;-1.10;99.90
21906;DHT22;11117;48.644;9.006;2023-04-06T04:25:04;-1.00;99.90
21906;DHT22;11117;48.644;9.006;2023-04-06T04:27:30;-1.10;99.90
21906;DHT22;11117;48.644;9.006;2023-04-06T04:29:55;-1.10;99.90
21906;DHT22;11117;48.644;9.006;2023-04-06T04:32:21;-1.10;99.90
21906;DHT22;11117;48.644;9.006;2023-04-06T04:34:47;-1.10;99.90
21906;DHT22;11117;48.644;9.006;2023-04-06T04:37:12;-1.10;99.90
21906;DHT22;11117;48.644;9.006;2023-04-06T04:39:38;-1.10;99.90
21906;DHT22;11117;48.644;9.006;2023-04-06T04:42:03;-1.20;99.90
21906;DHT22;11117;48.644;9.006;2023-04-06T04:44:29;-1.20;99.90
21906;DHT22;11117;48.644;9.006;2023-04-06T04:46:55;-1.20;99.90
21906;DHT22;11117;48.644;9.006;2023-04-06T04:49:21;-1.20;99.90
21906;DHT22;11117;48.644;9.006;2023-04-06T04:51:46;-1.20;99.90
21906;DHT22;11117;48.644;9.006;2023-04-06T04:54:12;-1.30;99.90
21906;DHT22;11117;48.644;9.006;2023-04-06T04:56:37;-1.20;99.90
21906;DHT22;11117;48.644;9.006;2023-04-06T04:59:03;-1.20;99.90
21906;DHT22;11117;48.644;9.006;2023-04-06T05:01:28;-1.20;99.90
21906;DHT22;11117;48.644;9.006;2023-04-06T05:03:54;-1.10;99.90
21906;DHT22;11117;48.644;9.006;2023-04-06T05:06:20;-1.10;99.90
21906;DHT22;11117;48.644;9.006;2023-04-06T05:08:45;-1.10;99.90
21906;DHT22;11117;48.644;9.006;2023-04-06T05:11:11;-1.10;99.90
21906;DHT22;11117;48.644;9.006;2023-04-06T05:13:37;-1.10;99.90
21906;DHT22;11117;48.644;9.006;2023-04-06T05:16:02;-1.00;99.90
21906;DHT22;11117;48.644;9.006;2023-04-06T05:18:28;-1.00;99.90
21906;DHT22;11117;48.644;9.006;2023-04-06T05:20:53;-1.00;99.90
21906;DHT22;11117;48.644;9.006;2023-04-06T05:23:19;-0.90;99.90
21906;DHT22;11117;48.644;9.006;2023-04-06T05:25:45;-0.90;99.90
21906;DHT22;11117;48.644;9.006;2023-04-06T05:28:10;-0.70;99.90
21906;DHT22;11117;48.644;9.006;2023-04-06T05:30:36;-0.70;99.90
21906;DHT22;11117;48.644;9.006;2023-04-06T05:33:02;-0.50;99.90
21906;DHT22;11117;48.644;9.006;2023-04-06T05:35:28;-0.40;99.90
21906;DHT22;11117;48.644;9.006;2023-04-06T05:37:53;-0.40;99.90
21906;DHT22;11117;48.644;9.006;2023-04-06T05:40:19;-0.30;99.90
21906;DHT22;11117;48.644;9.006;2023-04-06T05:42:44;-0.20;99.90
21906;DHT22;11117;48.644;9.006;2023-04-06T05:45:11;-0.20;99.90
21906;DHT22;11117;48.644;9.006;2023-04-06T05:47:37;-0.10;99.90
21906;DHT22;11117;48.644;9.006;2023-04-06T05:50:03;0.10;99.90
21906;DHT22;11117;48.644;9.006;2023-04-06T05:52:28;0.20;99.90
21906;DHT22;11117;48.644;9.006;2023-04-06T05:54:54;0.30;99.90
21906;DHT22;11117;48.644;9.006;2023-04-06T05:57:20;0.40;99.90
21906;DHT22;11117;48.644;9.006;2023-04-06T05:59:45;0.50;99.90
21906;DHT22;11117;48.644;9.006;2023-04-06T06:02:11;0.50;99.90
21906;DHT22;11117;48.644;9.006;2023-04-06T06:04:36;0.70;99.90
21906;DHT22;11117;48.644;9.006;2023-04-06T06:07:02;0.70;99.90
21906;DHT22;11117;48.644;9.006;2023-04-06T06:09:28;0.80;99.90
21906;DHT22;11117;48.644;9.006;2023-04-06T06:11:54;0.80;99.90
21906;DHT22;11117;48.644;9.006;2023-04-06T06:14:19;0.90;99.90
21906;DHT22;11117;48.644;9.006;2023-04-06T06:16:45;1.00;99.90
21906;DHT22;11117;48.644;9.006;2023-04-06T06:19:10;1.20;99.90
21906;DHT22;11117;48.644;9.006;2023-04-06T06:21:36;1.40;99.90
21906;DHT22;11117;48.644;9.006;2023-04-06T06:24:02;1.60;99.90
21906;DHT22;11117;48.644;9.006;2023-04-06T06:26:27;1.80;99.90
21906;DHT22;11117;48.644;9.006;2023-04-06T06:28:53;1.90;99.90
21906;DHT22;11117;48.644;9.006;2023-04-06T06:31:18;2.10;99.90
21906;DHT22;11117;48.644;9.006;2023-04-06T06:33:44;2.40;99.90
21906;DHT22;11117;48.644;9.006;2023-04-06T06:36:10;2.60;99.90
21906;DHT22;11117;48.644;9.006;2023-04-06T06:38:35;2.80;99.90
21906;DHT22;11117;48.644;9.006;2023-04-06T06:41:01;2.90;99.90
21906;DHT22;11117;48.644;9.006;2023-04-06T06:43:26;3.10;99.90
21906;DHT22;11117;48.644;9.006;2023-04-06T06:45:52;3.20;99.90
21906;DHT22;11117;48.644;9.006;2023-04-06T06:48:17;3.30;99.90
21906;DHT22;11117;48.644;9.006;2023-04-06T06:50:43;3.50;99.90
21906;DHT22;11117;48.644;9.006;2023-04-06T06:53:08;3.70;99.90
21906;DHT22;11117;48.644;9.006;2023-04-06T06:55:34;3.80;99.90
21906;DHT22;11117;48.644;9.006;2023-04-06T06:58:00;4.00;99.90
21906;DHT22;11117;48.644;9.006;2023-04-06T07:00:25;4.20;99.90
21906;DHT22;11117;48.644;9.006;2023-04-06T07:02:51;4.40;99.90
21906;DHT22;11117;48.644;9.006;2023-04-06T07:05:16;4.60;99.90
21906;DHT22;11117;48.644;9.006;2023-04-06T07:07:42;4.80;99.90
21906;DHT22;11117;48.644;9.006;2023-04-06T07:10:08;4.90;99.90
21906;DHT22;11117;48.644;9.006;2023-04-06T07:12:34;5.00;99.90
21906;DHT22;11117;48.644;9.006;2023-04-06T07:15:00;5.10;99.90
21906;DHT22;11117;48.644;9.006;2023-04-06T07:17:25;5.20;99.90
21906;DHT22;11117;48.644;9.006;2023-04-06T07:19:51;5.40;99.90
21906;DHT22;11117;48.644;9.006;2023-04-06T07:22:16;5.50;99.90
21906;DHT22;11117;48.644;9.006;2023-04-06T07:24:42;5.70;99.90
21906;DHT22;11117;48.644;9.006;2023-04-06T07:27:08;5.90;99.90
21906;DHT22;11117;48.644;9.006;2023-04-06T07:29:33;6.00;99.90
21906;DHT22;11117;48.644;9.006;2023-04-06T07:32:00;6.20;99.90
21906;DHT22;11117;48.644;9.006;2023-04-06T07:34:26;6.30;99.90
21906;DHT22;11117;48.644;9.006;2023-04-06T07:36:51;6.50;99.90
21906;DHT22;11117;48.644;9.006;2023-04-06T07:39:17;6.50;99.80
21906;DHT22;11117;48.644;9.006;2023-04-06T07:41:42;6.70;99.90
21906;DHT22;11117;48.644;9.006;2023-04-06T07:44:08;6.80;99.50
21906;DHT22;11117;48.644;9.006;2023-04-06T07:46:33;7.00;99.40
21906;DHT22;11117;48.644;9.006;2023-04-06T07:48:59;7.10;99.20
21906;DHT22;11117;48.644;9.006;2023-04-06T07:51:25;7.10;98.20
21906;DHT22;11117;48.644;9.006;2023-04-06T07:53:51;6.90;97.40
21906;DHT22;11117;48.644;9.006;2023-04-06T07:56:16;7.00;97.80
21906;DHT22;11117;48.644;9.006;2023-04-06T07:58:42;7.20;98.10
21906;DHT22;11117;48.644;9.006;2023-04-06T08:01:08;7.40;97.70
21906;DHT22;11117;48.644;9.006;2023-04-06T08:03:34;7.60;99.20
21906;DHT22;11117;48.644;9.006;2023-04-06T08:06:00;7.80;97.40
21906;DHT22;11117;48.644;9.006;2023-04-06T08:08:25;7.80;96.80
21906;DHT22;11117;48.644;9.006;2023-04-06T08:10:51;7.60;95.70
21906;DHT22;11117;48.644;9.006;2023-04-06T08:13:17;7.80;96.40
21906;DHT22;11117;48.644;9.006;2023-04-06T08:15:42;8.10;96.60
21906;DHT22;11117;48.644;9.006;2023-04-06T08:18:08;8.30;96.00
21906;DHT22;11117;48.644;9.006;2023-04-06T08:20:34;8.40;96.10
21906;DHT22;11117;48.644;9.006;2023-04-06T08:23:00;8.60;98.80
21906;DHT22;11117;48.644;9.006;2023-04-06T08:25:26;8.80;97.00
21906;DHT22;11117;48.644;9.006;2023-04-06T08:27:52;8.90;95.00
21906;DHT22;11117;48.644;9.006;2023-04-06T08:30:17;8.80;94.20
21906;DHT22;11117;48.644;9.006;2023-04-06T08:32:43;8.80;94.20
21906;DHT22;11117;48.644;9.006;2023-04-06T08:35:09;8.70;94.40
21906;DHT22;11117;48.644;9.006;2023-04-06T08:37:34;8.90;95.30
21906;DHT22;11117;48.644;9.006;2023-04-06T08:40:00;9.10;93.90
21906;DHT22;11117;48.644;9.006;2023-04-06T08:42:26;9.30;93.40
21906;DHT22;11117;48.644;9.006;2023-04-06T08:44:54;9.50;93.00
21906;DHT22;11117;48.644;9.006;2023-04-06T08:47:20;9.60;92.10
21906;DHT22;11117;48.644;9.006;2023-04-06T08:49:46;9.70;92.70
21906;DHT22;11117;48.644;9.006;2023-04-06T08:52:12;9.80;91.90
21906;DHT22;11117;48.644;9.006;2023-04-06T08:54:38;9.70;92.30
21906;DHT22;11117;48.644;9.006;2023-04-06T08:57:05;9.80;92.30
21906;DHT22;11117;48.644;9.006;2023-04-06T08:59:31;10.00;90.90
21906;DHT22;11117;48.644;9.006;2023-04-06T09:01:57;10.00;90.00
21906;DHT22;11117;48.644;9.006;2023-04-06T09:04:24;9.80;91.90
21906;DHT22;11117;48.644;9.006;2023-04-06T09:06:51;10.00;88.30
21906;DHT22;11117;48.644;9.006;2023-04-06T09:09:17;10.20;90.50
21906;DHT22;11117;48.644;9.006;2023-04-06T09:14:12;10.50;89.50
21906;DHT22;11117;48.644;9.006;2023-04-06T09:16:42;10.60;88.50
21906;DHT22;11117;48.644;9.006;2023-04-06T09:19:09;10.80;88.50
21906;DHT22;11117;48.644;9.006;2023-04-06T09:21:35;10.80;84.60
21906;DHT22;11117;48.644;9.006;2023-04-06T09:24:01;10.20;82.80
21906;DHT22;11117;48.644;9.006;2023-04-06T09:26:28;10.30;85.80
21906;DHT22;11117;48.644;9.006;2023-04-06T09:28:55;10.50;86.60
21906;DHT22;11117;48.644;9.006;2023-04-06T09:31:26;10.80;84.30
21906;DHT22;11117;48.644;9.006;2023-04-06T09:33:53;10.90;84.80
21906;DHT22;11117;48.644;9.006;2023-04-06T09:36:19;11.00;84.70
21906;DHT22;11117;48.644;9.006;2023-04-06T09:38:59;11.00;82.00
21906;DHT22;11117;48.644;9.006;2023-04-06T09:41:36;10.90;85.30
21906;DHT22;11117;48.644;9.006;2023-04-06T09:44:06;11.10;81.60
21906;DHT22;11117;48.644;9.006;2023-04-06T09:46:34;11.10;83.50
21906;DHT22;11117;48.644;9.006;2023-04-06T09:49:02;11.30;82.10
21906;DHT22;11117;48.644;9.006;2023-04-06T09:51:30;11.30;80.60
21906;DHT22;11117;48.644;9.006;2023-04-06T09:53:57;11.20;82.20
21906;DHT22;11117;48.644;9.006;2023-04-06T09:56:28;11.40;84.70
21906;DHT22;11117;48.644;9.006;2023-04-06T09:58:56;11.50;84.60
21906;DHT22;11117;48.644;9.006;2023-04-06T10:01:27;11.40;81.70
21906;DHT22;11117;48.644;9.006;2023-04-06T10:04:06;11.60;80.30
21906;DHT22;11117;48.644;9.006;2023-04-06T10:06:35;11.70;81.40
21906;DHT22;11117;48.644;9.006;2023-04-06T10:09:03;11.70;78.80
21906;DHT22;11117;48.644;9.006;2023-04-06T10:11:30;11.70;79.50
21906;DHT22;11117;48.644;9.006;2023-04-06T10:13:56;11.70;79.30
21906;DHT22;11117;48.644;9.006;2023-04-06T10:16:24;11.80;77.40
21906;DHT22;11117;48.644;9.006;2023-04-06T10:18:55;11.70;77.10
21906;DHT22;11117;48.644;9.006;2023-04-06T10:21:27;11.60;79.60
21906;DHT22;11117;48.644;9.006;2023-04-06T10:24:07;11.70;76.40
21906;DHT22;11117;48.644;9.006;2023-04-06T10:26:34;11.50;75.00
21906;DHT22;11117;48.644;9.006;2023-04-06T10:29:03;11.50;77.40
21906;DHT22;11117;48.644;9.006;2023-04-06T10:31:29;11.60;78.80
21906;DHT22;11117;48.644;9.006;2023-04-06T10:33:59;11.80;77.70
21906;DHT22;11117;48.644;9.006;2023-04-06T10:36:35;11.90;80.20
21906;DHT22;11117;48.644;9.006;2023-04-06T10:39:03;12.10;77.50
21906;DHT22;11117;48.644;9.006;2023-04-06T10:41:43;12.20;75.50
21906;DHT22;11117;48.644;9.006;2023-04-06T10:44:19;12.40;76.20
21906;DHT22;11117;48.644;9.006;2023-04-06T10:46:55;12.40;77.40
21906;DHT22;11117;48.644;9.006;2023-04-06T10:49:21;12.60;76.40
21906;DHT22;11117;48.644;9.006;2023-04-06T10:51:54;12.60;76.80
21906;DHT22;11117;48.644;9.006;2023-04-06T10:54:24;12.80;76.50
21906;DHT22;11117;48.644;9.006;2023-04-06T10:56:50;12.70;74.30
21906;DHT22;11117;48.644;9.006;2023-04-06T10:59:20;12.50;71.70
21906;DHT22;11117;48.644;9.006;2023-04-06T11:01:46;12.30;75.70
21906;DHT22;11117;48.644;9.006;2023-04-06T11:04:19;12.50;75.00
21906;DHT22;11117;48.644;9.006;2023-04-06T11:06:49;12.10;72.00
21906;DHT22;11117;48.644;9.006;2023-04-06T11:09:29;12.10;72.60
21906;DHT22;11117;48.644;9.006;2023-04-06T11:11:55;12.00;74.20
21906;DHT22;11117;48.644;9.006;2023-04-06T11:14:21;11.90;74.10
21906;DHT22;11117;48.644;9.006;2023-04-06T11:16:48;12.00;73.20
21906;DHT22;11117;48.644;9.006;2023-04-06T11:19:14;11.90;73.50
21906;DHT22;11117;48.644;9.006;2023-04-06T11:21:41;12.20;75.60
21906;DHT22;11117;48.644;9.006;2023-04-06T11:24:10;12.00;72.70
21906;DHT22;11117;48.644;9.006;2023-04-06T11:26:40;11.70;72.40
21906;DHT22;11117;48.644;9.006;2023-04-06T11:29:07;11.90;74.80
21906;DHT22;11117;48.644;9.006;2023-04-06T11:32:20;11.70;72.30
21906;DHT22;11117;48.644;9.006;2023-04-06T11:34:28;11.80;72.50
21906;DHT22;11117;48.644;9.006;2023-04-06T11:36:58;11.50;73.20
21906;DHT22;11117;48.644;9.006;2023-04-06T11:39:27;11.80;73.20
21906;DHT22;11117;48.644;9.006;2023-04-06T11:42:00;12.10;72.60
21906;DHT22;11117;48.644;9.006;2023-04-06T11:44:44;12.10;72.70
21906;DHT22;11117;48.644;9.006;2023-04-06T11:47:11;12.20;72.50
21906;DHT22;11117;48.644;9.006;2023-04-06T11:49:38;12.30;73.50
21906;DHT22;11117;48.644;9.006;2023-04-06T11:52:21;12.00;74.00
21906;DHT22;11117;48.644;9.006;2023-04-06T11:54:49;12.00;74.00
21906;DHT22;11117;48.644;9.006;2023-04-06T11:57:16;12.30;75.70
21906;DHT22;11117;48.644;9.006;2023-04-06T11:59:41;12.20;75.20
21906;DHT22;11117;48.644;9.006;2023-04-06T12:02:07;12.50;76.40
21906;DHT22;11117;48.644;9.006;2023-04-06T12:04:33;13.00;77.80
21906;DHT22;11117;48.644;9.006;2023-04-06T12:06:58;13.00;73.40
21906;DHT22;11117;48.644;9.006;2023-04-06T12:09:24;12.90;71.00
21906;DHT22;11117;48.644;9.006;2023-04-06T12:11:50;12.90;73.00
21906;DHT22;11117;48.644;9.006;2023-04-06T12:14:15;13.30;74.10
21906;DHT22;11117;48.644;9.006;2023-04-06T12:16:41;13.30;70.80
21906;DHT22;11117;48.644;9.006;2023-04-06T12:19:07;13.50;72.50
21906;DHT22;11117;48.644;9.006;2023-04-06T12:21:35;13.70;72.60
21906;DHT22;11117;48.644;9.006;2023-04-06T12:24:01;13.80;70.40
21906;DHT22;11117;48.644;9.006;2023-04-06T12:26:27;13.90;70.50
21906;DHT22;11117;48.644;9.006;2023-04-06T12:28:53;13.50;68.20
21906;DHT22;11117;48.644;9.006;2023-04-06T12:31:20;13.50;66.70
21906;DHT22;11117;48.644;9.006;2023-04-06T12:33:47;13.00;64.30
21906;DHT22;11117;48.644;9.006;2023-04-06T12:36:18;12.80;64.20
21906;DHT22;11117;48.644;9.006;2023-04-06T12:38:46;12.80;64.70
21906;DHT22;11117;48.644;9.006;2023-04-06T12:41:12;13.10;68.10
21906;DHT22;11117;48.644;9.006;2023-04-06T12:43:40;13.00;64.80
21906;DHT22;11117;48.644;9.006;2023-04-06T12:46:06;13.50;66.20
21906;DHT22;11117;48.644;9.006;2023-04-06T12:48:32;13.40;65.80
21906;DHT22;11117;48.644;9.006;2023-04-06T12:50:59;13.60;67.00
21906;DHT22;11117;48.644;9.006;2023-04-06T12:53:24;13.80;65.40
21906;DHT22;11117;48.644;9.006;2023-04-06T12:55:51;14.10;66.20
21906;DHT22;11117;48.644;9.006;2023-04-06T12:58:17;14.40;65.80
21906;DHT22;11117;48.644;9.006;2023-04-06T13:00:42;14.70;65.50
21906;DHT22;11117;48.644;9.006;2023-04-06T13:03:08;14.90;63.50
21906;DHT22;11117;48.644;9.006;2023-04-06T13:05:34;15.00;63.80
21906;DHT22;11117;48.644;9.006;2023-04-06T13:07:59;14.80;64.10
21906;DHT22;11117;48.644;9.006;2023-04-06T13:10:25;14.50;62.70
21906;DHT22;11117;48.644;9.006;2023-04-06T13:12:51;14.60;66.30
21906;DHT22;11117;48.644;9.006;2023-04-06T13:15:16;14.60;67.20
21906;DHT22;11117;48.644;9.006;2023-04-06T13:17:42;15.00;68.00
21906;DHT22;11117;48.644;9.006;2023-04-06T13:20:08;15.20;66.00
21906;DHT22;11117;48.644;9.006;2023-04-06T13:22:34;15.40;66.10
21906;DHT22;11117;48.644;9.006;2023-04-06T13:24:59;15.60;66.40
21906;DHT22;11117;48.644;9.006;2023-04-06T13:27:25;15.80;64.40
21906;DHT22;11117;48.644;9.006;2023-04-06T13:29:50;15.70;64.80
21906;DHT22;11117;48.644;9.006;2023-04-06T13:32:16;15.30;63.90
21906;DHT22;11117;48.644;9.006;2023-04-06T13:34:41;15.00;65.80
21906;DHT22;11117;48.644;9.006;2023-04-06T13:37:07;15.50;66.60
21906;DHT22;11117;48.644;9.006;2023-04-06T13:39:32;15.20;65.80
21906;DHT22;11117;48.644;9.006;2023-04-06T13:41:58;15.40;66.60
21906;DHT22;11117;48.644;9.006;2023-04-06T13:44:24;15.20;65.00
21906;DHT22;11117;48.644;9.006;2023-04-06T13:46:49;15.30;67.50
21906;DHT22;11117;48.644;9.006;2023-04-06T13:49:15;15.80;67.30
21906;DHT22;11117;48.644;9.006;2023-04-06T13:51:40;16.00;68.10
21906;DHT22;11117;48.644;9.006;2023-04-06T13:54:06;15.70;62.50
21906;DHT22;11117;48.644;9.006;2023-04-06T13:56:31;15.10;62.20
21906;DHT22;11117;48.644;9.006;2023-04-06T13:58:57;15.10;62.20
21906;DHT22;11117;48.644;9.006;2023-04-06T14:01:23;15.10;63.30
21906;DHT22;11117;48.644;9.006;2023-04-06T14:03:49;15.30;63.50
21906;DHT22;11117;48.644;9.006;2023-04-06T14:06:14;15.40;63.50
21906;DHT22;11117;48.644;9.006;2023-04-06T14:08:40;15.40;64.10
21906;DHT22;11117;48.644;9.006;2023-04-06T14:11:07;15.30;62.90
21906;DHT22;11117;48.644;9.006;2023-04-06T14:13:35;15.10;63.40
21906;DHT22;11117;48.644;9.006;2023-04-06T14:16:01;15.30;65.10
21906;DHT22;11117;48.644;9.006;2023-04-06T14:18:26;15.30;64.20
21906;DHT22;11117;48.644;9.006;2023-04-06T14:20:55;15.20;63.90
21906;DHT22;11117;48.644;9.006;2023-04-06T14:23:21;15.00;63.90
21906;DHT22;11117;48.644;9.006;2023-04-06T14:25:47;15.20;64.80
21906;DHT22;11117;48.644;9.006;2023-04-06T14:28:13;15.30;67.10
21906;DHT22;11117;48.644;9.006;2023-04-06T14:30:38;15.30;65.80
21906;DHT22;11117;48.644;9.006;2023-04-06T14:33:04;15.50;67.70
21906;DHT22;11117;48.644;9.006;2023-04-06T14:35:29;15.50;67.00
21906;DHT22;11117;48.644;9.006;2023-04-06T14:37:56;15.10;65.50
21906;DHT22;11117;48.644;9.006;2023-04-06T14:40:21;15.10;67.40
21906;DHT22;11117;48.644;9.006;2023-04-06T14:42:47;15.50;69.30
21906;DHT22;11117;48.644;9.006;2023-04-06T14:45:12;15.40;69.40
21906;DHT22;11117;48.644;9.006;2023-04-06T14:47:38;15.30;67.20
21906;DHT22;11117;48.644;9.006;2023-04-06T14:50:04;15.50;68.60
21906;DHT22;11117;48.644;9.006;2023-04-06T14:52:29;15.30;67.10
21906;DHT22;11117;48.644;9.006;2023-04-06T14:54:55;15.10;66.90
21906;DHT22;11117;48.644;9.006;2023-04-06T14:57:20;14.90;66.60
21906;DHT22;11117;48.644;9.006;2023-04-06T14:59:46;14.10;66.70
21906;DHT22;11117;48.644;9.006;2023-04-06T15:02:11;14.00;69.00
21906;DHT22;11117;48.644;9.006;2023-04-06T15:04:38;14.10;69.10
21906;DHT22;11117;48.644;9.006;2023-04-06T15:07:04;14.30;69.70
21906;DHT22;11117;48.644;9.006;2023-04-06T15:09:29;14.30;69.50
21906;DHT22;11117;48.644;9.006;2023-04-06T15:11:55;14.20;67.70
21906;DHT22;11117;48.644;9.006;2023-04-06T15:14:20;14.40;67.90
21906;DHT22;11117;48.644;9.006;2023-04-06T15:16:46;14.10;67.40
21906;DHT22;11117;48.644;9.006;2023-04-06T15:19:11;13.80;67.30
21906;DHT22;11117;48.644;9.006;2023-04-06T15:21:37;14.00;69.30
21906;DHT22;11117;48.644;9.006;2023-04-06T15:24:02;13.80;69.10
21906;DHT22;11117;48.644;9.006;2023-04-06T15:26:28;14.10;75.00
21906;DHT22;11117;48.644;9.006;2023-04-06T15:28:54;14.00;67.50
21906;DHT22;11117;48.644;9.006;2023-04-06T15:31:19;14.10;69.30
21906;DHT22;11117;48.644;9.006;2023-04-06T15:33:45;13.80;67.60